Time;durP1;ratioP1;P1;durP2;ratioP2;P2;SDS_P1;SDS_P2;PMS_P1;PMS_P2;Temp;Humidity;BMP_temperature;BMP_pressure;BME280_temperature;BME280_humidity;BME280_pressure;Samples;Min_cycle;Max_cycle;Signal;HPM_P1;HPM_P2
2021/04/13 00:02:25;;;;;;;;;;;18.50;49.40;;;;;;5006409;28;19940;-59
2021/04/13 00:04:56;;;;;;;;;;;18.40;49.30;;;;;;5005737;28;19917;-58
2021/04/13 00:07:22;;;;;;;;;;;18.40;49.20;;;;;;5023385;28;19917;-59
2021/04/13 00:09:47;;;;;;;;;;;18.50;49.20;;;;;;5023649;28;20347;-58
2021/04/13 00:12:17;;;;;;;;;;;18.40;49.10;;;;;;5002363;28;19995;-58
2021/04/13 00:14:47;;;;;;;;;;;18.50;49.00;;;;;;5003609;28;20069;-59
2021/04/13 00:17:14;;;;;;;;;;;18.50;49.00;;;;;;5017673;23;19952;-64
2021/04/13 00:19:43;;;;;;;;;;;18.40;48.90;;;;;;5004362;28;19917;-65
2021/04/13 00:22:08;;;;;;;;;;;18.40;48.90;;;;;;5013636;28;19953;-64
2021/04/13 00:24:34;;;;;;;;;;;18.50;48.90;;;;;;5015091;28;19921;-65
2021/04/13 00:27:00;;;;;;;;;;;18.50;48.80;;;;;;5006383;28;20184;-65
2021/04/13 00:29:28;;;;;;;;;;;18.40;48.60;;;;;;5005623;28;19926;-65
2021/04/13 00:31:55;;;;;;;;;;;18.50;48.60;;;;;;5023106;22;19906;-54
2021/04/13 00:34:22;;;;;;;;;;;18.40;48.60;;;;;;5043576;28;20285;-54
2021/04/13 00:36:48;;;;;;;;;;;18.50;48.60;;;;;;5044334;28;19924;-55
2021/04/13 00:39:15;;;;;;;;;;;18.40;48.60;;;;;;5044562;28;19925;-56
2021/04/13 00:41:42;;;;;;;;;;;18.40;48.80;;;;;;5044736;28;19929;-53
2021/04/13 00:44:07;;;;;;;;;;;18.40;48.90;;;;;;5027049;28;20389;-57
2021/04/13 00:46:36;;;;;;;;;;;18.40;49.10;;;;;;5025305;28;19979;-54
2021/04/13 00:49:01;;;;;;;;;;;18.30;49.10;;;;;;5027164;28;19979;-56
2021/04/13 00:51:47;;;;;;;;;;;18.30;49.20;;;;;;5026384;28;19925;-53
2021/04/13 00:54:25;;;;;;;;;;;18.30;49.20;;;;;;5043757;28;19956;-53
2021/04/13 00:56:51;;;;;;;;;;;18.30;49.30;;;;;;5026870;28;19917;-53
2021/04/13 00:59:17;;;;;;;;;;;18.30;49.20;;;;;;5044786;28;20336;-55
2021/04/13 01:01:44;;;;;;;;;;;18.30;49.20;;;;;;5060362;28;19960;-55
2021/04/13 01:04:11;;;;;;;;;;;18.30;49.30;;;;;;5044234;28;20007;-53
2021/04/13 01:06:37;;;;;;;;;;;18.30;49.50;;;;;;5060086;28;19951;-55
2021/04/13 01:09:17;;;;;;;;;;;18.30;49.50;;;;;;5044320;28;19948;-53
2021/04/13 01:11:44;;;;;;;;;;;18.30;49.60;;;;;;5035298;28;19975;-54
2021/04/13 01:14:09;;;;;;;;;;;18.30;49.70;;;;;;5043913;28;20332;-57
2021/04/13 01:16:50;;;;;;;;;;;18.30;49.90;;;;;;5044587;28;19917;-57
2021/04/13 01:19:25;;;;;;;;;;;18.30;50.00;;;;;;5052081;28;19942;-57
2021/04/13 01:21:56;;;;;;;;;;;18.30;50.00;;;;;;5025398;28;19974;-57
2021/04/13 01:24:27;;;;;;;;;;;18.30;50.00;;;;;;5058355;28;19917;-56
2021/04/13 01:26:53;;;;;;;;;;;18.30;50.00;;;;;;5058888;28;19917;-53
2021/04/13 01:29:19;;;;;;;;;;;18.30;50.00;;;;;;5059795;28;20000;-55
2021/04/13 01:31:51;;;;;;;;;;;18.30;50.00;;;;;;5059300;28;20018;-53
2021/04/13 01:34:33;;;;;;;;;;;18.30;49.90;;;;;;5041803;28;19920;-52
2021/04/13 01:37:03;;;;;;;;;;;18.30;49.90;;;;;;5043416;28;20615;-56
2021/04/13 01:39:29;;;;;;;;;;;18.30;49.80;;;;;;5058986;28;19923;-55
2021/04/13 01:41:59;;;;;;;;;;;18.30;49.60;;;;;;5043815;28;19971;-54
2021/04/13 01:44:32;;;;;;;;;;;18.30;49.60;;;;;;5026435;28;19948;-57
2021/04/13 01:46:57;;;;;;;;;;;18.30;49.50;;;;;;5025790;28;20340;-52
2021/04/13 01:49:23;;;;;;;;;;;18.30;49.40;;;;;;5043876;28;19935;-56
2021/04/13 01:51:49;;;;;;;;;;;18.30;49.30;;;;;;5059571;28;19917;-52
2021/04/13 01:54:15;;;;;;;;;;;18.30;49.20;;;;;;5026279;28;19960;-54
2021/04/13 01:56:46;;;;;;;;;;;18.40;49.10;;;;;;5025982;28;19967;-55
2021/04/13 01:59:14;;;;;;;;;;;18.40;49.00;;;;;;5043236;28;20034;-54
2021/04/13 02:01:40;;;;;;;;;;;18.40;48.90;;;;;;5059346;28;19920;-57
2021/04/13 02:04:14;;;;;;;;;;;18.40;48.80;;;;;;5026162;28;20373;-57
2021/04/13 02:06:57;;;;;;;;;;;18.40;48.70;;;;;;5043773;28;19924;-59
2021/04/13 02:09:28;;;;;;;;;;;18.40;48.70;;;;;;5058862;28;20443;-56
2021/04/13 02:11:54;;;;;;;;;;;18.40;48.60;;;;;;5026337;28;20035;-56
2021/04/13 02:14:20;;;;;;;;;;;18.40;48.60;;;;;;5043772;28;19920;-56
2021/04/13 02:16:50;;;;;;;;;;;18.40;48.50;;;;;;5059199;28;19920;-55
2021/04/13 02:19:15;;;;;;;;;;;18.40;48.40;;;;;;5058895;28;19917;-55
2021/04/13 02:21:42;;;;;;;;;;;18.40;48.30;;;;;;5025590;28;19927;-54
2021/04/13 02:24:11;;;;;;;;;;;18.40;48.30;;;;;;5010825;28;19916;-54
2021/04/13 02:26:41;;;;;;;;;;;18.50;48.30;;;;;;5062082;28;19928;-55
2021/04/13 02:29:06;;;;;;;;;;;18.40;48.10;;;;;;5062978;28;19956;-57
2021/04/13 02:31:47;;;;;;;;;;;18.50;48.20;;;;;;5063268;28;20603;-56
2021/04/13 02:34:14;;;;;;;;;;;18.40;48.10;;;;;;5047597;28;20466;-55
2021/04/13 02:36:40;;;;;;;;;;;18.40;48.00;;;;;;5062681;28;19917;-54
2021/04/13 02:39:05;;;;;;;;;;;18.40;48.00;;;;;;5063104;28;19923;-57
2021/04/13 02:41:35;;;;;;;;;;;18.40;48.00;;;;;;5029375;28;20018;-55
2021/04/13 02:44:07;;;;;;;;;;;18.50;48.00;;;;;;5048993;28;19923;-56
2021/04/13 02:46:33;;;;;;;;;;;18.40;48.00;;;;;;5029675;28;20038;-56
2021/04/13 02:49:05;;;;;;;;;;;18.40;48.00;;;;;;5028801;28;20452;-57
2021/04/13 02:51:31;;;;;;;;;;;18.40;48.50;;;;;;5047889;28;19996;-54
2021/04/13 02:53:57;;;;;;;;;;;18.40;48.00;;;;;;5045869;28;20093;-54
2021/04/13 02:56:23;;;;;;;;;;;18.40;47.90;;;;;;5012196;28;19917;-50
2021/04/13 02:59:01;;;;;;;;;;;18.40;47.90;;;;;;5061882;28;20369;-53
2021/04/13 03:01:27;;;;;;;;;;;18.40;47.90;;;;;;5056014;28;19921;-53
2021/04/13 03:03:52;;;;;;;;;;;18.40;47.80;;;;;;5046599;28;20072;-54
2021/04/13 03:06:18;;;;;;;;;;;18.40;47.80;;;;;;5046365;28;19924;-56
2021/04/13 03:08:43;;;;;;;;;;;18.40;47.80;;;;;;5062318;28;20062;-55
2021/04/13 03:11:11;;;;;;;;;;;18.40;47.80;;;;;;5061960;28;19923;-52
2021/04/13 03:13:37;;;;;;;;;;;18.40;47.80;;;;;;5046996;28;20286;-56
2021/04/13 03:16:02;;;;;;;;;;;18.40;47.80;;;;;;5028279;28;19916;-52
2021/04/13 03:18:48;;;;;;;;;;;18.40;47.70;;;;;;5028887;28;19923;-52
2021/04/13 03:21:15;;;;;;;;;;;18.30;47.70;;;;;;5044986;28;19925;-57
2021/04/13 03:23:40;;;;;;;;;;;18.30;47.60;;;;;;5028830;28;19917;-53
2021/04/13 03:26:10;;;;;;;;;;;18.30;47.70;;;;;;5062447;28;19923;-52
2021/04/13 03:28:37;;;;;;;;;;;18.30;47.70;;;;;;5061625;28;19917;-51
2021/04/13 03:31:03;;;;;;;;;;;18.30;47.70;;;;;;5045837;28;19917;-50
2021/04/13 03:33:29;;;;;;;;;;;18.30;47.70;;;;;;5028448;28;19921;-55
2021/04/13 03:36:07;;;;;;;;;;;18.30;47.60;;;;;;5061077;28;19917;-53
2021/04/13 03:38:32;;;;;;;;;;;18.30;47.60;;;;;;5046100;28;20397;-57
2021/04/13 03:40:58;;;;;;;;;;;18.30;47.60;;;;;;5061096;28;19971;-55
2021/04/13 03:43:24;;;;;;;;;;;18.30;47.60;;;;;;5046162;28;19917;-53
2021/04/13 03:45:51;;;;;;;;;;;18.30;47.60;;;;;;5046240;28;19923;-52
2021/04/13 03:48:18;;;;;;;;;;;18.30;47.60;;;;;;5061043;28;20000;-56
2021/04/13 03:50:43;;;;;;;;;;;18.30;47.60;;;;;;5045947;28;19920;-51
2021/04/13 03:53:09;;;;;;;;;;;18.30;47.60;;;;;;5046042;28;19935;-56
2021/04/13 03:55:35;;;;;;;;;;;18.30;47.60;;;;;;5045759;28;21357;-57
2021/04/13 03:58:19;;;;;;;;;;;18.30;47.60;;;;;;5044637;28;19924;-57
2021/04/13 04:00:45;;;;;;;;;;;18.30;47.60;;;;;;5045245;28;19928;-55
2021/04/13 04:03:11;;;;;;;;;;;18.30;47.60;;;;;;5010809;28;19925;-51
2021/04/13 04:05:43;;;;;;;;;;;18.30;47.60;;;;;;5046520;28;19948;-50
2021/04/13 04:08:14;;;;;;;;;;;18.20;47.60;;;;;;5040442;28;19940;-53
2021/04/13 04:10:50;;;;;;;;;;;18.20;47.60;;;;;;5060757;28;19920;-56
2021/04/13 04:13:15;;;;;;;;;;;18.20;47.60;;;;;;5028066;28;20060;-54
2021/04/13 04:15:41;;;;;;;;;;;18.20;47.60;;;;;;5044986;28;19917;-52
2021/04/13 04:18:11;;;;;;;;;;;18.30;47.60;;;;;;5045601;28;20278;-54
2021/04/13 04:20:36;;;;;;;;;;;18.20;47.60;;;;;;5045013;28;20520;-55
2021/04/13 04:23:02;;;;;;;;;;;18.20;47.60;;;;;;5044365;28;19917;-57
2021/04/13 04:25:40;;;;;;;;;;;18.20;47.70;;;;;;5060830;28;19978;-57
2021/04/13 04:28:24;;;;;;;;;;;18.20;47.80;;;;;;5045061;28;19920;-57
2021/04/13 04:30:50;;;;;;;;;;;18.20;48.00;;;;;;5033800;28;19924;-56
2021/04/13 04:33:35;;;;;;;;;;;18.20;48.10;;;;;;5043324;28;19929;-55
2021/04/13 04:36:01;;;;;;;;;;;18.20;48.30;;;;;;5044340;28;19967;-55
2021/04/13 04:38:27;;;;;;;;;;;18.20;48.40;;;;;;5044495;28;19951;-55
2021/04/13 04:40:54;;;;;;;;;;;18.20;48.50;;;;;;5044524;28;20405;-59
2021/04/13 04:43:37;;;;;;;;;;;18.20;48.70;;;;;;5027083;28;19952;-53
2021/04/13 04:46:02;;;;;;;;;;;18.20;48.90;;;;;;5042877;28;19956;-53
2021/04/13 04:48:35;;;;;;;;;;;18.20;49.00;;;;;;5025879;28;19924;-53
2021/04/13 04:51:07;;;;;;;;;;;18.10;49.00;;;;;;5043187;28;20400;-56
2021/04/13 04:53:33;;;;;;;;;;;18.20;49.00;;;;;;5044313;28;19917;-56
2021/04/13 04:55:58;;;;;;;;;;;18.10;48.80;;;;;;5044025;28;19966;-54
2021/04/13 04:58:24;;;;;;;;;;;18.10;48.80;;;;;;5043282;28;19924;-54
2021/04/13 05:00:50;;;;;;;;;;;18.10;48.70;;;;;;5043626;28;20423;-55
2021/04/13 05:03:15;;;;;;;;;;;18.10;48.70;;;;;;5044590;28;19924;-54
2021/04/13 05:05:41;;;;;;;;;;;18.10;48.70;;;;;;5044701;28;20352;-55
2021/04/13 05:08:06;;;;;;;;;;;18.10;48.60;;;;;;5043249;28;19923;-56
2021/04/13 05:10:32;;;;;;;;;;;18.10;48.60;;;;;;5025511;28;19924;-55
2021/04/13 05:12:57;;;;;;;;;;;18.00;48.40;;;;;;5043419;28;19939;-56
2021/04/13 05:15:23;;;;;;;;;;;18.10;48.50;;;;;;5044305;28;19978;-54
2021/04/13 05:17:48;;;;;;;;;;;18.10;48.40;;;;;;5044264;28;19924;-57
2021/04/13 05:20:14;;;;;;;;;;;18.10;49.10;;;;;;5044187;28;20282;-54
2021/04/13 05:22:40;;;;;;;;;;;18.10;49.20;;;;;;5044232;28;20451;-55
2021/04/13 05:25:06;;;;;;;;;;;18.10;49.30;;;;;;5026426;28;19917;-57
2021/04/13 05:27:31;;;;;;;;;;;18.10;49.20;;;;;;5051435;28;20298;-55
2021/04/13 05:29:56;;;;;;;;;;;18.10;49.50;;;;;;5042526;28;19982;-55
2021/04/13 05:32:22;;;;;;;;;;;18.00;49.70;;;;;;5041920;28;19917;-57
2021/04/13 05:34:47;;;;;;;;;;;18.10;50.00;;;;;;5042299;28;20329;-57
2021/04/13 05:37:13;;;;;;;;;;;18.00;50.10;;;;;;5043063;28;19921;-55
2021/04/13 05:39:38;;;;;;;;;;;18.10;50.30;;;;;;5024425;28;19920;-55
2021/04/13 05:42:06;;;;;;;;;;;18.00;50.50;;;;;;5024500;28;19925;-57
2021/04/13 05:44:31;;;;;;;;;;;18.00;50.70;;;;;;5042981;28;19916;-52
2021/04/13 05:46:57;;;;;;;;;;;18.00;50.70;;;;;;5044718;28;19919;-57
2021/04/13 05:49:22;;;;;;;;;;;18.10;50.60;;;;;;5027156;28;19913;-55
2021/04/13 05:51:48;;;;;;;;;;;18.10;50.40;;;;;;5044999;28;19978;-57
2021/04/13 05:54:13;;;;;;;;;;;18.10;50.20;;;;;;5045342;28;19920;-57
2021/04/13 05:56:39;;;;;;;;;;;18.00;49.90;;;;;;5045152;28;19913;-56
2021/04/13 05:59:05;;;;;;;;;;;18.00;49.80;;;;;;5027921;28;19921;-56
2021/04/13 06:01:30;;;;;;;;;;;18.00;49.80;;;;;;5031531;28;20050;-57
2021/04/13 06:03:56;;;;;;;;;;;18.00;49.70;;;;;;5031979;28;20000;-56
2021/04/13 06:06:21;;;;;;;;;;;18.00;49.70;;;;;;5048167;28;20046;-51
2021/04/13 06:08:47;;;;;;;;;;;18.00;49.70;;;;;;5048916;28;19912;-57
2021/04/13 06:11:31;;;;;;;;;;;18.00;49.60;;;;;;5048987;28;19913;-56
2021/04/13 06:13:57;;;;;;;;;;;18.00;49.60;;;;;;5048953;28;19935;-55
2021/04/13 06:16:24;;;;;;;;;;;18.00;49.50;;;;;;5048733;28;20349;-57
2021/04/13 06:18:49;;;;;;;;;;;18.00;49.50;;;;;;5048307;28;19940;-56
2021/04/13 06:21:15;;;;;;;;;;;18.00;49.30;;;;;;5047709;28;19923;-58
2021/04/13 06:23:40;;;;;;;;;;;18.00;49.30;;;;;;5048645;28;19919;-54
2021/04/13 06:26:06;;;;;;;;;;;18.00;49.30;;;;;;5045509;28;20336;-56
2021/04/13 06:28:31;;;;;;;;;;;18.00;49.10;;;;;;5047846;28;20532;-57
2021/04/13 06:30:57;;;;;;;;;;;18.00;48.70;;;;;;5047558;28;19917;-56
2021/04/13 06:33:23;;;;;;;;;;;18.00;48.60;;;;;;5059540;22;19935;-58
2021/04/13 06:35:48;;;;;;;;;;;18.00;48.60;;;;;;5043419;28;19986;-56
2021/04/13 06:38:16;;;;;;;;;;;18.00;49.20;;;;;;5029875;28;19940;-58
2021/04/13 06:40:52;;;;;;;;;;;18.00;48.60;;;;;;5029402;28;20041;-58
2021/04/13 06:43:36;;;;;;;;;;;18.00;48.50;;;;;;5047093;28;19913;-57
2021/04/13 06:46:15;;;;;;;;;;;18.00;48.50;;;;;;5047575;28;19919;-56
2021/04/13 06:48:59;;;;;;;;;;;18.00;48.50;;;;;;5029128;28;19913;-54
2021/04/13 06:51:30;;;;;;;;;;;18.00;48.50;;;;;;5046836;28;19966;-52
2021/04/13 06:54:02;;;;;;;;;;;18.00;48.50;;;;;;5046924;28;20459;-56
2021/04/13 06:56:39;;;;;;;;;;;17.90;48.50;;;;;;5029137;28;19944;-54
2021/04/13 06:59:14;;;;;;;;;;;17.90;48.50;;;;;;5047267;28;19929;-52
2021/04/13 07:01:43;;;;;;;;;;;18.00;48.50;;;;;;5047176;28;20393;-55
2021/04/13 07:04:10;;;;;;;;;;;18.00;48.50;;;;;;5046768;28;19913;-56
2021/04/13 07:06:38;;;;;;;;;;;17.90;48.50;;;;;;5028963;28;19924;-56
2021/04/13 07:09:09;;;;;;;;;;;18.00;48.50;;;;;;5012051;28;19961;-57
2021/04/13 07:11:36;;;;;;;;;;;18.00;48.60;;;;;;5046917;28;19960;-57
2021/04/13 07:14:22;;;;;;;;;;;17.90;48.50;;;;;;5029312;28;19912;-57
2021/04/13 07:16:53;;;;;;;;;;;17.90;48.50;;;;;;5045379;28;19927;-55
2021/04/13 07:19:27;;;;;;;;;;;18.00;48.60;;;;;;5028637;28;19936;-56
2021/04/13 07:21:56;;;;;;;;;;;18.00;48.60;;;;;;5046168;28;20738;-57
2021/04/13 07:24:23;;;;;;;;;;;18.00;48.60;;;;;;5046161;28;20340;-54
2021/04/13 07:26:53;;;;;;;;;;;17.90;48.50;;;;;;5028566;28;20520;-56
2021/04/13 07:29:23;;;;;;;;;;;17.90;48.50;;;;;;5028004;28;19974;-55
2021/04/13 07:31:51;;;;;;;;;;;18.00;48.60;;;;;;5046583;28;19913;-56
2021/04/13 07:34:16;;;;;;;;;;;17.90;48.50;;;;;;5046363;28;19931;-56
2021/04/13 07:36:46;;;;;;;;;;;18.00;48.60;;;;;;5045399;28;19921;-54
2021/04/13 07:39:12;;;;;;;;;;;17.90;48.50;;;;;;5044347;28;19952;-54
2021/04/13 07:41:42;;;;;;;;;;;17.90;48.50;;;;;;5046479;28;20354;-55
2021/04/13 07:44:14;;;;;;;;;;;17.90;48.50;;;;;;5044618;28;20007;-52
2021/04/13 07:46:47;;;;;;;;;;;17.90;48.50;;;;;;5046067;28;19919;-57
2021/04/13 07:49:21;;;;;;;;;;;17.90;48.50;;;;;;5044278;28;19920;-55
2021/04/13 07:52:05;;;;;;;;;;;17.90;48.50;;;;;;5045006;28;19913;-53
2021/04/13 07:54:34;;;;;;;;;;;17.90;48.50;;;;;;5046286;28;19936;-51
2021/04/13 07:57:12;;;;;;;;;;;17.90;48.50;;;;;;5046156;28;19996;-56
2021/04/13 07:59:54;;;;;;;;;;;17.90;48.50;;;;;;5044475;28;20714;-53
2021/04/13 08:02:19;;;;;;;;;;;17.90;48.50;;;;;;5044591;28;20336;-57
2021/04/13 08:04:48;;;;;;;;;;;17.90;48.50;;;;;;5045108;28;19925;-55
2021/04/13 08:07:15;;;;;;;;;;;17.90;48.60;;;;;;5045355;28;19974;-53
2021/04/13 08:09:41;;;;;;;;;;;17.90;48.40;;;;;;5045131;28;19917;-55
2021/04/13 08:12:16;;;;;;;;;;;17.90;48.40;;;;;;5027901;28;19947;-56
2021/04/13 08:15:04;;;;;;;;;;;17.90;48.50;;;;;;5045527;28;19919;-55
2021/04/13 08:17:31;;;;;;;;;;;17.90;48.50;;;;;;5031648;28;19917;-53
2021/04/13 08:20:06;;;;;;;;;;;17.90;48.40;;;;;;5027157;28;19913;-56
2021/04/13 08:22:51;;;;;;;;;;;17.90;48.40;;;;;;5045103;28;19921;-56
2021/04/13 08:25:55;;;;;;;;;;;17.90;48.40;;;;;;5045145;28;19924;-55
2021/04/13 08:28:20;;;;;;;;;;;17.90;48.40;;;;;;4944294;29;19918;-53
2021/04/13 08:32:49;;;;;;;;;;;17.90;48.40;;;;;;4944641;29;19988;-57
2021/04/13 08:33:41;;;;;;;;;;;17.90;48.40;;;;;;5010077;28;19925;-53
2021/04/13 08:36:11;;;;;;;;;;;17.90;48.40;;;;;;5027538;28;19967;-53
2021/04/13 08:38:43;;;;;;;;;;;17.90;48.40;;;;;;5045012;28;20301;-55
2021/04/13 08:41:28;;;;;;;;;;;17.90;48.40;;;;;;5044643;28;20400;-54
2021/04/13 08:44:00;;;;;;;;;;;17.90;48.30;;;;;;5044746;28;20012;-55
2021/04/13 08:46:46;;;;;;;;;;;17.90;48.40;;;;;;5026832;28;19913;-54
2021/04/13 08:49:18;;;;;;;;;;;17.90;48.30;;;;;;5026932;28;19920;-55
2021/04/13 08:51:45;;;;;;;;;;;17.90;48.30;;;;;;5027842;28;20000;-57
2021/04/13 08:54:13;;;;;;;;;;;18.00;48.30;;;;;;5044864;28;20286;-53
2021/04/13 08:56:39;;;;;;;;;;;18.00;48.20;;;;;;5044337;28;19912;-57
2021/04/13 08:59:05;;;;;;;;;;;17.90;48.20;;;;;;5027025;28;19913;-57
2021/04/13 09:01:35;;;;;;;;;;;18.00;48.20;;;;;;5026575;28;19928;-56
2021/04/13 09:04:01;;;;;;;;;;;18.00;48.20;;;;;;5044329;28;20007;-55
2021/04/13 09:06:49;;;;;;;;;;;18.00;48.10;;;;;;5044531;28;19961;-57
2021/04/13 09:09:17;;;;;;;;;;;18.00;48.10;;;;;;4993864;28;19917;-56
2021/04/13 09:11:47;;;;;;;;;;;18.10;48.00;;;;;;5044550;28;20477;-53
2021/04/13 09:14:27;;;;;;;;;;;18.10;47.90;;;;;;5044655;28;19996;-56
2021/04/13 09:16:55;;;;;;;;;;;18.10;47.80;;;;;;5044018;28;19913;-57
2021/04/13 09:19:22;;;;;;;;;;;18.10;47.70;;;;;;5044600;28;19913;-56
2021/04/13 09:21:50;;;;;;;;;;;18.20;47.70;;;;;;5026558;28;19966;-55
2021/04/13 09:24:19;;;;;;;;;;;18.20;47.70;;;;;;5027210;28;20255;-53
2021/04/13 09:26:45;;;;;;;;;;;18.20;47.60;;;;;;5043067;28;19920;-56
2021/04/13 09:29:30;;;;;;;;;;;18.20;47.60;;;;;;5026425;28;19924;-57
2021/04/13 09:31:55;;;;;;;;;;;18.20;47.60;;;;;;5043658;28;19951;-56
2021/04/13 09:34:21;;;;;;;;;;;18.20;47.60;;;;;;5043564;28;19960;-55
2021/04/13 09:37:05;;;;;;;;;;;18.20;47.60;;;;;;5043680;28;19920;-62
2021/04/13 09:39:49;;;;;;;;;;;18.20;47.60;;;;;;5043431;28;19966;-55
2021/04/13 09:42:14;;;;;;;;;;;18.20;47.50;;;;;;5016611;28;19917;-56
2021/04/13 09:44:40;;;;;;;;;;;18.20;47.40;;;;;;5043485;28;19924;-53
2021/04/13 09:47:10;;;;;;;;;;;18.20;47.40;;;;;;5043215;28;19955;-57
2021/04/13 09:49:39;;;;;;;;;;;18.30;47.40;;;;;;5009166;28;19913;-57
2021/04/13 09:52:07;;;;;;;;;;;18.20;47.40;;;;;;5026209;28;19935;-52
2021/04/13 09:54:33;;;;;;;;;;;18.30;47.40;;;;;;5043789;28;19919;-56
2021/04/13 09:57:07;;;;;;;;;;;18.20;47.40;;;;;;5043195;28;19999;-55
2021/04/13 09:59:50;;;;;;;;;;;18.30;47.40;;;;;;5043811;28;19966;-56
2021/04/13 10:02:35;;;;;;;;;;;18.30;47.40;;;;;;4999614;28;20429;-56
2021/04/13 10:05:01;;;;;;;;;;;18.30;47.30;;;;;;5042438;28;19920;-56
2021/04/13 10:07:51;;;;;;;;;;;18.30;47.30;;;;;;5043240;28;20329;-57
2021/04/13 10:10:42;;;;;;;;;;;18.20;47.20;;;;;;5043684;28;19913;-57
2021/04/13 10:13:12;;;;;;;;;;;18.30;47.40;;;;;;5007396;28;19978;-56
2021/04/13 10:15:37;;;;;;;;;;;18.20;47.40;;;;;;5026122;28;20434;-56
2021/04/13 10:18:06;;;;;;;;;;;18.20;47.30;;;;;;5025591;28;20011;-54
2021/04/13 10:20:50;;;;;;;;;;;18.20;47.40;;;;;;5025469;28;20412;-56
2021/04/13 10:23:27;;;;;;;;;;;18.20;47.40;;;;;;5043429;28;20016;-53
2021/04/13 10:26:11;;;;;;;;;;;18.20;47.40;;;;;;5025175;28;19919;-56
2021/04/13 10:28:52;;;;;;;;;;;18.20;47.40;;;;;;5043385;28;20961;-53
2021/04/13 10:31:27;;;;;;;;;;;18.20;47.40;;;;;;5043357;28;19920;-56
2021/04/13 10:34:02;;;;;;;;;;;18.20;47.40;;;;;;5026580;28;19921;-56
2021/04/13 10:36:46;;;;;;;;;;;18.20;47.50;;;;;;5043760;28;19927;-53
2021/04/13 10:39:26;;;;;;;;;;;18.20;47.50;;;;;;5043780;28;20392;-52
2021/04/13 10:41:55;;;;;;;;;;;18.20;47.50;;;;;;5043752;28;19952;-55
2021/04/13 10:44:26;;;;;;;;;;;18.20;47.50;;;;;;5045027;28;19920;-54
2021/04/13 10:46:51;;;;;;;;;;;18.20;47.50;;;;;;5012379;28;19912;-56
2021/04/13 10:49:21;;;;;;;;;;;18.20;47.60;;;;;;5047739;28;20158;-55
2021/04/13 10:52:05;;;;;;;;;;;18.20;47.60;;;;;;5047570;28;19952;-54
2021/04/13 10:54:49;;;;;;;;;;;18.20;47.60;;;;;;5047075;28;19924;-52
2021/04/13 10:57:21;;;;;;;;;;;18.20;47.60;;;;;;5047140;28;19913;-52
2021/04/13 10:59:58;;;;;;;;;;;18.10;47.60;;;;;;5028488;28;19921;-54
2021/04/13 11:02:27;;;;;;;;;;;18.10;47.50;;;;;;5047110;28;19917;-52
2021/04/13 11:05:04;;;;;;;;;;;18.10;47.60;;;;;;5046676;28;20011;-53
2021/04/13 11:07:49;;;;;;;;;;;18.10;47.60;;;;;;5046930;28;19917;-55
2021/04/13 11:10:20;;;;;;;;;;;18.10;47.60;;;;;;5047064;28;19917;-53
2021/04/13 11:12:51;;;;;;;;;;;18.10;47.70;;;;;;5047361;28;19948;-55
2021/04/13 11:15:35;;;;;;;;;;;18.10;47.70;;;;;;5029006;28;20382;-54
2021/04/13 11:18:14;;;;;;;;;;;18.10;47.70;;;;;;5046808;28;19928;-53
2021/04/13 11:20:56;;;;;;;;;;;18.10;47.70;;;;;;5028476;28;19939;-55
2021/04/13 11:23:41;;;;;;;;;;;18.10;47.70;;;;;;5028572;28;20367;-56
2021/04/13 11:26:16;;;;;;;;;;;18.10;47.70;;;;;;5026463;28;21939;-52
2021/04/13 11:28:41;;;;;;;;;;;18.10;47.70;;;;;;5046013;28;19913;-55
2021/04/13 11:31:14;;;;;;;;;;;18.10;47.80;;;;;;5045769;28;19988;-54
2021/04/13 11:33:42;;;;;;;;;;;18.10;47.80;;;;;;5046152;28;19921;-56
2021/04/13 11:36:09;;;;;;;;;;;18.10;47.70;;;;;;5045973;28;20290;-56
2021/04/13 11:38:38;;;;;;;;;;;18.10;47.80;;;;;;5028422;28;19923;-56
2021/04/13 11:41:22;;;;;;;;;;;18.10;47.70;;;;;;5045960;28;19917;-54
2021/04/13 11:43:47;;;;;;;;;;;18.10;47.80;;;;;;5045842;28;20402;-58
2021/04/13 11:46:21;;;;;;;;;;;18.10;47.70;;;;;;5046751;28;19947;-57
2021/04/13 11:48:56;;;;;;;;;;;18.10;47.80;;;;;;5028334;28;20465;-57
2021/04/13 11:51:30;;;;;;;;;;;18.10;47.80;;;;;;5027962;28;20588;-55
2021/04/13 11:53:56;;;;;;;;;;;18.10;47.80;;;;;;5046087;28;19916;-57
2021/04/13 11:56:22;;;;;;;;;;;18.10;47.80;;;;;;5026475;28;19913;-57
2021/04/13 11:59:06;;;;;;;;;;;18.10;47.70;;;;;;5046231;28;20438;-55
2021/04/13 12:01:31;;;;;;;;;;;18.10;47.70;;;;;;5044969;28;20309;-57
2021/04/13 12:03:58;;;;;;;;;;;18.10;47.70;;;;;;5045294;28;19913;-53
2021/04/13 12:06:42;;;;;;;;;;;18.10;47.80;;;;;;5045506;28;19952;-56
2021/04/13 12:09:07;;;;;;;;;;;18.10;47.80;;;;;;5045735;28;19932;-55
2021/04/13 12:11:43;;;;;;;;;;;18.10;47.80;;;;;;5027413;28;19913;-57
2021/04/13 12:14:28;;;;;;;;;;;18.10;47.80;;;;;;5040501;28;19913;-57
2021/04/13 12:16:53;;;;;;;;;;;18.10;47.80;;;;;;5024078;28;20472;-57
2021/04/13 12:19:22;;;;;;;;;;;18.10;47.80;;;;;;5041711;28;21350;-54
2021/04/13 12:21:51;;;;;;;;;;;18.10;47.80;;;;;;5024768;28;19969;-56
2021/04/13 12:24:35;;;;;;;;;;;18.10;47.80;;;;;;5042623;28;19970;-54
2021/04/13 12:27:19;;;;;;;;;;;18.10;47.80;;;;;;5041220;28;19965;-55
2021/04/13 12:29:45;;;;;;;;;;;18.10;47.80;;;;;;5044874;28;19913;-57
2021/04/13 12:32:10;;;;;;;;;;;18.00;47.80;;;;;;5044465;28;20021;-54
2021/04/13 12:34:46;;;;;;;;;;;18.00;47.80;;;;;;5052804;23;19932;-56
2021/04/13 12:37:29;;;;;;;;;;;18.10;47.80;;;;;;5033428;28;19999;-50
2021/04/13 12:39:55;;;;;;;;;;;18.00;47.80;;;;;;5043024;28;19948;-54
2021/04/13 12:42:28;;;;;;;;;;;18.00;47.80;;;;;;5043066;28;19983;-55
2021/04/13 12:45:12;;;;;;;;;;;18.00;47.80;;;;;;5043585;28;19952;-55
2021/04/13 12:47:37;;;;;;;;;;;18.00;47.80;;;;;;5043047;28;19913;-52
2021/04/13 12:50:11;;;;;;;;;;;18.00;47.80;;;;;;5042804;28;19912;-54
2021/04/13 12:52:36;;;;;;;;;;;18.00;47.80;;;;;;5041643;28;19967;-56
2021/04/13 12:55:09;;;;;;;;;;;18.00;47.80;;;;;;5042527;28;19916;-56
2021/04/13 12:57:35;;;;;;;;;;;18.00;47.80;;;;;;5042547;28;19916;-53
2021/04/13 13:00:04;;;;;;;;;;;18.00;47.80;;;;;;5041652;28;19921;-55
2021/04/13 13:02:31;;;;;;;;;;;18.00;47.80;;;;;;5042914;28;20007;-55
2021/04/13 13:04:56;;;;;;;;;;;18.00;47.80;;;;;;5042942;28;19920;-53
2021/04/13 13:07:23;;;;;;;;;;;18.00;47.80;;;;;;5041838;28;19917;-53
2021/04/13 13:09:49;;;;;;;;;;;18.00;47.80;;;;;;5042136;28;19920;-57
2021/04/13 13:12:33;;;;;;;;;;;18.00;47.80;;;;;;5025606;28;19913;-55
2021/04/13 13:15:05;;;;;;;;;;;18.00;47.80;;;;;;5043523;28;20007;-56
2021/04/13 13:17:31;;;;;;;;;;;18.00;47.80;;;;;;5042405;28;19919;-53
2021/04/13 13:19:57;;;;;;;;;;;18.00;47.80;;;;;;5043278;28;19920;-54
2021/04/13 13:22:24;;;;;;;;;;;18.00;47.80;;;;;;5042468;28;19920;-54
2021/04/13 13:24:51;;;;;;;;;;;18.00;47.90;;;;;;5042972;28;19920;-54
2021/04/13 13:27:17;;;;;;;;;;;18.00;47.90;;;;;;5043141;28;19924;-54
2021/04/13 13:29:43;;;;;;;;;;;18.00;47.90;;;;;;5043570;28;19927;-53
2021/04/13 13:32:10;;;;;;;;;;;18.00;47.80;;;;;;5042551;28;19921;-51
2021/04/13 13:34:35;;;;;;;;;;;18.00;47.80;;;;;;5042534;28;19928;-55
2021/04/13 13:37:02;;;;;;;;;;;18.00;47.90;;;;;;5042231;28;20089;-53
2021/04/13 13:39:31;;;;;;;;;;;18.00;47.90;;;;;;5040888;28;19917;-56
2021/04/13 13:42:00;;;;;;;;;;;18.00;47.80;;;;;;5041326;28;19947;-55
2021/04/13 13:44:26;;;;;;;;;;;18.00;47.80;;;;;;5040523;28;19913;-55
2021/04/13 13:47:15;;;;;;;;;;;18.00;47.80;;;;;;5042917;28;19917;-56
2021/04/13 13:49:40;;;;;;;;;;;18.00;47.70;;;;;;5030313;28;19913;-56
2021/04/13 13:52:08;;;;;;;;;;;18.00;47.70;;;;;;5042233;28;19913;-52
2021/04/13 13:54:36;;;;;;;;;;;18.00;47.70;;;;;;5043019;28;19920;-53
2021/04/13 13:57:09;;;;;;;;;;;18.00;47.70;;;;;;5042339;28;19970;-53
2021/04/13 13:59:41;;;;;;;;;;;18.00;47.70;;;;;;5043034;28;20568;-53
2021/04/13 14:02:16;;;;;;;;;;;18.00;47.70;;;;;;5042511;28;19920;-51
2021/04/13 14:04:42;;;;;;;;;;;18.00;47.70;;;;;;5008820;28;19913;-56
2021/04/13 14:07:08;;;;;;;;;;;18.00;47.70;;;;;;5042647;28;20262;-53
2021/04/13 14:09:33;;;;;;;;;;;18.00;47.70;;;;;;5025496;28;19913;-51
2021/04/13 14:12:17;;;;;;;;;;;18.00;47.60;;;;;;5025337;28;20003;-55
2021/04/13 14:14:43;;;;;;;;;;;18.00;47.70;;;;;;5043484;28;19917;-57
2021/04/13 14:17:13;;;;;;;;;;;18.00;47.60;;;;;;5043055;28;21445;-56
2021/04/13 14:19:38;;;;;;;;;;;18.00;47.60;;;;;;5045243;28;19948;-55
2021/04/13 14:22:09;;;;;;;;;;;18.00;47.60;;;;;;5046247;28;19923;-53
2021/04/13 14:24:35;;;;;;;;;;;18.00;47.60;;;;;;5046279;28;20267;-53
2021/04/13 14:27:05;;;;;;;;;;;18.00;47.60;;;;;;5028493;28;19960;-54
2021/04/13 14:29:32;;;;;;;;;;;18.00;47.60;;;;;;5046902;28;19913;-51
2021/04/13 14:31:58;;;;;;;;;;;18.00;47.70;;;;;;5029028;28;20325;-55
2021/04/13 14:34:26;;;;;;;;;;;18.00;47.70;;;;;;5046858;28;19921;-56
2021/04/13 14:37:06;;;;;;;;;;;18.00;47.60;;;;;;5046884;28;20342;-56